sensor_id;sensor_type;location;lat;lon;timestamp;P1;durP1;ratioP1;P2;durP2;ratioP2
61038;SDS011;46919;45.816;3.104;2023-01-29T00:01:36;9.50;;;6.00;;
61038;SDS011;46919;45.816;3.104;2023-01-29T00:04:01;8.02;;;5.55;;
61038;SDS011;46919;45.816;3.104;2023-01-29T00:06:27;9.32;;;5.72;;
61038;SDS011;46919;45.816;3.104;2023-01-29T00:08:53;7.63;;;5.38;;
61038;SDS011;46919;45.816;3.104;2023-01-29T00:11:18;8.63;;;5.88;;
61038;SDS011;46919;45.816;3.104;2023-01-29T00:13:44;8.70;;;6.18;;
61038;SDS011;46919;45.816;3.104;2023-01-29T00:16:10;8.02;;;5.45;;
61038;SDS011;46919;45.816;3.104;2023-01-29T00:18:38;8.05;;;5.10;;
61038;SDS011;46919;45.816;3.104;2023-01-29T00:21:11;7.38;;;5.00;;
61038;SDS011;46919;45.816;3.104;2023-01-29T00:23:39;7.28;;;4.80;;
61038;SDS011;46919;45.816;3.104;2023-01-29T00:26:05;6.00;;;4.88;;
61038;SDS011;46919;45.816;3.104;2023-01-29T00:28:31;8.05;;;5.30;;
61038;SDS011;46919;45.816;3.104;2023-01-29T00:30:56;7.38;;;5.25;;
61038;SDS011;46919;45.816;3.104;2023-01-29T00:33:22;8.88;;;5.60;;
61038;SDS011;46919;45.816;3.104;2023-01-29T00:35:47;7.38;;;5.10;;
61038;SDS011;46919;45.816;3.104;2023-01-29T00:38:13;6.70;;;5.20;;
61038;SDS011;46919;45.816;3.104;2023-01-29T00:40:38;8.48;;;5.70;;
61038;SDS011;46919;45.816;3.104;2023-01-29T00:43:23;6.35;;;4.97;;
61038;SDS011;46919;45.816;3.104;2023-01-29T00:46:07;6.55;;;4.40;;
61038;SDS011;46919;45.816;3.104;2023-01-29T00:48:33;6.38;;;4.65;;
61038;SDS011;46919;45.816;3.104;2023-01-29T00:50:59;6.80;;;4.88;;
61038;SDS011;46919;45.816;3.104;2023-01-29T00:53:25;6.10;;;4.53;;
61038;SDS011;46919;45.816;3.104;2023-01-29T00:55:51;7.38;;;4.50;;
61038;SDS011;46919;45.816;3.104;2023-01-29T00:58:16;7.00;;;4.40;;
61038;SDS011;46919;45.816;3.104;2023-01-29T01:00:47;6.07;;;4.53;;
61038;SDS011;46919;45.816;3.104;2023-01-29T01:03:13;7.22;;;4.30;;
61038;SDS011;46919;45.816;3.104;2023-01-29T01:05:39;6.55;;;5.00;;
61038;SDS011;46919;45.816;3.104;2023-01-29T01:08:06;7.05;;;4.93;;
61038;SDS011;46919;45.816;3.104;2023-01-29T01:11:00;6.70;;;4.97;;
61038;SDS011;46919;45.816;3.104;2023-01-29T01:13:27;5.85;;;4.60;;
61038;SDS011;46919;45.816;3.104;2023-01-29T01:15:53;6.30;;;4.60;;
61038;SDS011;46919;45.816;3.104;2023-01-29T01:18:18;5.50;;;4.47;;
61038;SDS011;46919;45.816;3.104;2023-01-29T01:20:46;6.22;;;4.72;;
61038;SDS011;46919;45.816;3.104;2023-01-29T01:23:15;6.07;;;4.80;;
61038;SDS011;46919;45.816;3.104;2023-01-29T01:25:44;6.28;;;4.28;;
61038;SDS011;46919;45.816;3.104;2023-01-29T01:28:10;5.45;;;4.00;;
61038;SDS011;46919;45.816;3.104;2023-01-29T01:30:35;6.25;;;4.43;;
61038;SDS011;46919;45.816;3.104;2023-01-29T01:33:01;5.40;;;4.18;;
61038;SDS011;46919;45.816;3.104;2023-01-29T01:35:26;6.55;;;4.30;;
61038;SDS011;46919;45.816;3.104;2023-01-29T01:37:52;5.20;;;4.38;;
61038;SDS011;46919;45.816;3.104;2023-01-29T01:40:19;5.50;;;4.55;;
61038;SDS011;46919;45.816;3.104;2023-01-29T01:42:50;5.22;;;4.05;;
61038;SDS011;46919;45.816;3.104;2023-01-29T01:45:19;7.13;;;4.68;;
61038;SDS011;46919;45.816;3.104;2023-01-29T01:47:50;6.28;;;4.38;;
61038;SDS011;46919;45.816;3.104;2023-01-29T01:52:54;5.07;;;4.07;;
61038;SDS011;46919;45.816;3.104;2023-01-29T01:55:25;6.57;;;4.32;;
61038;SDS011;46919;45.816;3.104;2023-01-29T01:57:55;5.80;;;3.88;;
61038;SDS011;46919;45.816;3.104;2023-01-29T02:00:25;5.97;;;4.15;;
61038;SDS011;46919;45.816;3.104;2023-01-29T02:02:51;5.00;;;3.80;;
61038;SDS011;46919;45.816;3.104;2023-01-29T02:05:36;5.95;;;4.22;;
61038;SDS011;46919;45.816;3.104;2023-01-29T02:08:24;6.00;;;4.47;;
61038;SDS011;46919;45.816;3.104;2023-01-29T02:11:13;6.38;;;4.70;;
61038;SDS011;46919;45.816;3.104;2023-01-29T02:13:38;5.53;;;4.35;;
61038;SDS011;46919;45.816;3.104;2023-01-29T02:16:04;6.30;;;4.18;;
61038;SDS011;46919;45.816;3.104;2023-01-29T02:18:30;6.10;;;4.60;;
61038;SDS011;46919;45.816;3.104;2023-01-29T02:29:09;5.82;;;4.10;;
61038;SDS011;46919;45.816;3.104;2023-01-29T02:31:55;5.03;;;4.00;;
61038;SDS011;46919;45.816;3.104;2023-01-29T02:34:35;5.78;;;4.38;;
61038;SDS011;46919;45.816;3.104;2023-01-29T02:37:29;7.90;;;4.38;;
61038;SDS011;46919;45.816;3.104;2023-01-29T02:42:54;6.07;;;4.15;;
61038;SDS011;46919;45.816;3.104;2023-01-29T02:49:19;5.60;;;4.07;;
61038;SDS011;46919;45.816;3.104;2023-01-29T02:54:11;7.05;;;4.80;;
61038;SDS011;46919;45.816;3.104;2023-01-29T02:57:03;5.82;;;4.47;;
61038;SDS011;46919;45.816;3.104;2023-01-29T03:00:06;5.68;;;3.97;;
61038;SDS011;46919;45.816;3.104;2023-01-29T03:02:52;5.70;;;4.57;;
61038;SDS011;46919;45.816;3.104;2023-01-29T03:08:10;5.97;;;4.28;;
61038;SDS011;46919;45.816;3.104;2023-01-29T03:10:46;6.60;;;4.90;;
61038;SDS011;46919;45.816;3.104;2023-01-29T03:13:21;6.35;;;4.60;;
61038;SDS011;46919;45.816;3.104;2023-01-29T03:15:48;6.10;;;4.72;;
61038;SDS011;46919;45.816;3.104;2023-01-29T03:18:25;6.97;;;5.00;;
61038;SDS011;46919;45.816;3.104;2023-01-29T03:20:56;6.85;;;4.85;;
61038;SDS011;46919;45.816;3.104;2023-01-29T03:23:27;6.05;;;4.55;;
61038;SDS011;46919;45.816;3.104;2023-01-29T03:26:14;6.07;;;4.53;;
61038;SDS011;46919;45.816;3.104;2023-01-29T03:29:02;6.50;;;4.90;;
61038;SDS011;46919;45.816;3.104;2023-01-29T03:31:47;6.05;;;4.70;;
61038;SDS011;46919;45.816;3.104;2023-01-29T03:34:40;7.03;;;4.85;;
61038;SDS011;46919;45.816;3.104;2023-01-29T03:37:16;8.95;;;4.85;;
61038;SDS011;46919;45.816;3.104;2023-01-29T03:39:51;6.80;;;4.25;;
61038;SDS011;46919;45.816;3.104;2023-01-29T03:42:22;7.78;;;5.05;;
61038;SDS011;46919;45.816;3.104;2023-01-29T03:50:40;6.68;;;4.40;;
61038;SDS011;46919;45.816;3.104;2023-01-29T04:01:47;7.10;;;4.65;;
61038;SDS011;46919;45.816;3.104;2023-01-29T04:04:23;7.45;;;4.80;;
61038;SDS011;46919;45.816;3.104;2023-01-29T04:06:53;5.05;;;3.97;;
61038;SDS011;46919;45.816;3.104;2023-01-29T04:09:29;6.13;;;4.40;;
61038;SDS011;46919;45.816;3.104;2023-01-29T04:12:02;6.35;;;4.70;;
61038;SDS011;46919;45.816;3.104;2023-01-29T04:14:34;6.07;;;4.72;;
61038;SDS011;46919;45.816;3.104;2023-01-29T04:17:02;6.28;;;4.50;;
61038;SDS011;46919;45.816;3.104;2023-01-29T04:19:35;6.85;;;4.85;;
61038;SDS011;46919;45.816;3.104;2023-01-29T04:22:22;6.82;;;4.72;;
61038;SDS011;46919;45.816;3.104;2023-01-29T04:24:57;5.60;;;4.30;;
61038;SDS011;46919;45.816;3.104;2023-01-29T04:27:39;5.85;;;4.55;;
61038;SDS011;46919;45.816;3.104;2023-01-29T04:38:00;7.40;;;5.03;;
61038;SDS011;46919;45.816;3.104;2023-01-29T04:46:12;5.93;;;4.45;;
61038;SDS011;46919;45.816;3.104;2023-01-29T04:56:32;8.07;;;5.50;;
61038;SDS011;46919;45.816;3.104;2023-01-29T04:59:06;7.43;;;5.20;;
61038;SDS011;46919;45.816;3.104;2023-01-29T05:01:37;6.65;;;4.75;;
61038;SDS011;46919;45.816;3.104;2023-01-29T05:04:12;6.88;;;4.88;;
61038;SDS011;46919;45.816;3.104;2023-01-29T05:06:40;7.85;;;5.35;;
61038;SDS011;46919;45.816;3.104;2023-01-29T05:09:06;7.25;;;5.20;;
61038;SDS011;46919;45.816;3.104;2023-01-29T05:11:33;8.00;;;5.22;;
61038;SDS011;46919;45.816;3.104;2023-01-29T05:14:01;7.07;;;5.13;;
61038;SDS011;46919;45.816;3.104;2023-01-29T05:16:33;6.78;;;5.07;;
61038;SDS011;46919;45.816;3.104;2023-01-29T05:19:10;6.65;;;4.93;;
61038;SDS011;46919;45.816;3.104;2023-01-29T05:21:37;7.68;;;5.35;;
61038;SDS011;46919;45.816;3.104;2023-01-29T05:24:10;8.00;;;5.40;;
61038;SDS011;46919;45.816;3.104;2023-01-29T05:26:36;7.07;;;5.10;;
61038;SDS011;46919;45.816;3.104;2023-01-29T05:29:20;7.25;;;5.00;;
61038;SDS011;46919;45.816;3.104;2023-01-29T05:31:46;9.32;;;5.88;;
61038;SDS011;46919;45.816;3.104;2023-01-29T05:34:11;7.07;;;5.35;;
61038;SDS011;46919;45.816;3.104;2023-01-29T05:36:36;7.53;;;5.63;;
61038;SDS011;46919;45.816;3.104;2023-01-29T05:39:02;9.50;;;6.25;;
61038;SDS011;46919;45.816;3.104;2023-01-29T05:41:28;10.32;;;6.32;;
61038;SDS011;46919;45.816;3.104;2023-01-29T05:43:53;8.32;;;5.85;;
61038;SDS011;46919;45.816;3.104;2023-01-29T05:46:18;7.97;;;5.47;;
61038;SDS011;46919;45.816;3.104;2023-01-29T05:48:44;7.85;;;5.78;;
61038;SDS011;46919;45.816;3.104;2023-01-29T05:51:09;8.68;;;5.53;;
61038;SDS011;46919;45.816;3.104;2023-01-29T05:53:35;7.72;;;5.47;;
61038;SDS011;46919;45.816;3.104;2023-01-29T05:56:00;8.05;;;5.80;;
61038;SDS011;46919;45.816;3.104;2023-01-29T05:58:26;8.43;;;5.63;;
61038;SDS011;46919;45.816;3.104;2023-01-29T06:00:52;8.73;;;6.00;;
61038;SDS011;46919;45.816;3.104;2023-01-29T06:03:17;10.65;;;5.70;;
61038;SDS011;46919;45.816;3.104;2023-01-29T06:05:42;9.15;;;5.90;;
61038;SDS011;46919;45.816;3.104;2023-01-29T06:08:08;8.43;;;5.95;;
61038;SDS011;46919;45.816;3.104;2023-01-29T06:10:33;8.20;;;5.70;;
61038;SDS011;46919;45.816;3.104;2023-01-29T06:12:59;7.30;;;5.63;;
61038;SDS011;46919;45.816;3.104;2023-01-29T06:15:24;8.43;;;5.93;;
61038;SDS011;46919;45.816;3.104;2023-01-29T06:17:53;10.80;;;6.30;;
61038;SDS011;46919;45.816;3.104;2023-01-29T06:20:20;7.28;;;5.40;;
61038;SDS011;46919;45.816;3.104;2023-01-29T06:22:45;7.78;;;5.88;;
61038;SDS011;46919;45.816;3.104;2023-01-29T06:25:10;8.90;;;6.47;;
61038;SDS011;46919;45.816;3.104;2023-01-29T06:27:36;9.82;;;5.93;;
61038;SDS011;46919;45.816;3.104;2023-01-29T06:30:04;7.70;;;5.47;;
61038;SDS011;46919;45.816;3.104;2023-01-29T06:32:31;9.38;;;5.90;;
61038;SDS011;46919;45.816;3.104;2023-01-29T06:34:56;9.00;;;5.95;;
61038;SDS011;46919;45.816;3.104;2023-01-29T06:37:22;9.93;;;6.30;;
61038;SDS011;46919;45.816;3.104;2023-01-29T06:39:47;8.63;;;6.28;;
61038;SDS011;46919;45.816;3.104;2023-01-29T06:42:13;8.25;;;5.60;;
61038;SDS011;46919;45.816;3.104;2023-01-29T06:44:38;8.52;;;6.25;;
61038;SDS011;46919;45.816;3.104;2023-01-29T06:47:03;9.65;;;5.97;;
61038;SDS011;46919;45.816;3.104;2023-01-29T06:49:29;7.43;;;5.88;;
61038;SDS011;46919;45.816;3.104;2023-01-29T06:51:54;8.60;;;6.43;;
61038;SDS011;46919;45.816;3.104;2023-01-29T06:54:20;10.23;;;7.03;;
61038;SDS011;46919;45.816;3.104;2023-01-29T06:56:45;12.20;;;6.60;;
61038;SDS011;46919;45.816;3.104;2023-01-29T06:59:10;9.27;;;6.72;;
61038;SDS011;46919;45.816;3.104;2023-01-29T07:01:40;7.53;;;5.75;;
61038;SDS011;46919;45.816;3.104;2023-01-29T07:04:08;8.90;;;5.90;;
61038;SDS011;46919;45.816;3.104;2023-01-29T07:06:33;8.95;;;5.80;;
61038;SDS011;46919;45.816;3.104;2023-01-29T07:08:59;9.05;;;6.15;;
61038;SDS011;46919;45.816;3.104;2023-01-29T07:11:24;9.82;;;6.05;;
61038;SDS011;46919;45.816;3.104;2023-01-29T07:13:50;8.00;;;6.05;;
61038;SDS011;46919;45.816;3.104;2023-01-29T07:16:15;7.95;;;5.93;;
61038;SDS011;46919;45.816;3.104;2023-01-29T07:18:41;9.23;;;6.30;;
61038;SDS011;46919;45.816;3.104;2023-01-29T07:21:07;9.52;;;6.50;;
61038;SDS011;46919;45.816;3.104;2023-01-29T07:23:33;8.95;;;6.38;;
61038;SDS011;46919;45.816;3.104;2023-01-29T07:26:00;9.10;;;5.90;;
61038;SDS011;46919;45.816;3.104;2023-01-29T07:28:27;9.25;;;6.25;;
61038;SDS011;46919;45.816;3.104;2023-01-29T07:30:58;8.48;;;6.65;;
61038;SDS011;46919;45.816;3.104;2023-01-29T07:33:24;9.45;;;6.80;;
61038;SDS011;46919;45.816;3.104;2023-01-29T07:35:49;9.00;;;6.13;;
61038;SDS011;46919;45.816;3.104;2023-01-29T07:38:15;9.85;;;6.80;;
61038;SDS011;46919;45.816;3.104;2023-01-29T07:40:40;11.20;;;6.63;;
61038;SDS011;46919;45.816;3.104;2023-01-29T07:43:06;10.60;;;6.72;;
61038;SDS011;46919;45.816;3.104;2023-01-29T07:45:36;10.07;;;6.82;;
61038;SDS011;46919;45.816;3.104;2023-01-29T07:48:03;11.40;;;7.22;;
61038;SDS011;46919;45.816;3.104;2023-01-29T07:50:30;12.02;;;7.43;;
61038;SDS011;46919;45.816;3.104;2023-01-29T07:52:57;11.18;;;7.65;;
61038;SDS011;46919;45.816;3.104;2023-01-29T07:55:22;12.07;;;8.02;;
61038;SDS011;46919;45.816;3.104;2023-01-29T07:57:58;12.55;;;7.15;;
61038;SDS011;46919;45.816;3.104;2023-01-29T08:00:25;14.13;;;7.47;;
61038;SDS011;46919;45.816;3.104;2023-01-29T08:02:50;12.93;;;7.75;;
61038;SDS011;46919;45.816;3.104;2023-01-29T08:05:16;11.60;;;7.75;;
61038;SDS011;46919;45.816;3.104;2023-01-29T08:07:41;11.18;;;7.72;;
61038;SDS011;46919;45.816;3.104;2023-01-29T08:10:07;11.20;;;7.63;;
61038;SDS011;46919;45.816;3.104;2023-01-29T08:12:33;12.13;;;7.40;;
61038;SDS011;46919;45.816;3.104;2023-01-29T08:14:58;14.38;;;8.50;;
61038;SDS011;46919;45.816;3.104;2023-01-29T08:17:24;11.02;;;7.55;;
61038;SDS011;46919;45.816;3.104;2023-01-29T08:19:49;10.82;;;7.45;;
61038;SDS011;46919;45.816;3.104;2023-01-29T08:22:14;11.23;;;7.38;;
61038;SDS011;46919;45.816;3.104;2023-01-29T08:24:40;12.70;;;7.93;;
61038;SDS011;46919;45.816;3.104;2023-01-29T08:27:06;11.80;;;7.60;;
61038;SDS011;46919;45.816;3.104;2023-01-29T08:29:32;12.40;;;6.93;;
61038;SDS011;46919;45.816;3.104;2023-01-29T08:31:57;11.95;;;7.72;;
61038;SDS011;46919;45.816;3.104;2023-01-29T08:34:23;10.65;;;6.88;;
61038;SDS011;46919;45.816;3.104;2023-01-29T08:36:48;13.02;;;6.88;;
61038;SDS011;46919;45.816;3.104;2023-01-29T08:39:14;10.68;;;7.72;;
61038;SDS011;46919;45.816;3.104;2023-01-29T08:41:39;12.80;;;7.60;;
61038;SDS011;46919;45.816;3.104;2023-01-29T08:44:04;11.90;;;7.60;;
61038;SDS011;46919;45.816;3.104;2023-01-29T08:46:30;12.23;;;7.22;;
61038;SDS011;46919;45.816;3.104;2023-01-29T08:48:56;11.20;;;7.35;;
61038;SDS011;46919;45.816;3.104;2023-01-29T08:51:22;12.13;;;7.72;;
61038;SDS011;46919;45.816;3.104;2023-01-29T08:53:49;11.63;;;7.85;;
61038;SDS011;46919;45.816;3.104;2023-01-29T08:56:14;12.07;;;7.57;;
61038;SDS011;46919;45.816;3.104;2023-01-29T08:58:40;10.27;;;7.13;;
61038;SDS011;46919;45.816;3.104;2023-01-29T09:01:10;11.43;;;7.38;;
61038;SDS011;46919;45.816;3.104;2023-01-29T09:03:37;10.68;;;7.38;;
61038;SDS011;46919;45.816;3.104;2023-01-29T09:06:05;12.63;;;8.70;;
61038;SDS011;46919;45.816;3.104;2023-01-29T09:08:32;13.35;;;7.82;;
61038;SDS011;46919;45.816;3.104;2023-01-29T09:10:58;11.45;;;7.82;;
61038;SDS011;46919;45.816;3.104;2023-01-29T09:13:24;13.88;;;7.78;;
61038;SDS011;46919;45.816;3.104;2023-01-29T09:15:50;10.40;;;7.50;;
61038;SDS011;46919;45.816;3.104;2023-01-29T09:18:15;10.48;;;6.85;;
61038;SDS011;46919;45.816;3.104;2023-01-29T09:20:41;11.52;;;7.38;;
61038;SDS011;46919;45.816;3.104;2023-01-29T09:23:07;12.75;;;7.03;;
61038;SDS011;46919;45.816;3.104;2023-01-29T09:25:34;10.60;;;7.28;;
61038;SDS011;46919;45.816;3.104;2023-01-29T09:28:00;13.07;;;8.07;;
61038;SDS011;46919;45.816;3.104;2023-01-29T09:30:25;13.63;;;8.43;;
61038;SDS011;46919;45.816;3.104;2023-01-29T09:32:50;12.82;;;7.55;;
61038;SDS011;46919;45.816;3.104;2023-01-29T09:35:16;9.18;;;6.70;;
61038;SDS011;46919;45.816;3.104;2023-01-29T09:37:41;9.70;;;7.15;;
61038;SDS011;46919;45.816;3.104;2023-01-29T09:40:08;10.90;;;7.65;;
61038;SDS011;46919;45.816;3.104;2023-01-29T09:42:49;14.23;;;6.97;;
61038;SDS011;46919;45.816;3.104;2023-01-29T09:45:27;9.90;;;7.20;;
61038;SDS011;46919;45.816;3.104;2023-01-29T09:48:00;10.95;;;6.82;;
61038;SDS011;46919;45.816;3.104;2023-01-29T09:50:40;10.25;;;7.40;;
61038;SDS011;46919;45.816;3.104;2023-01-29T09:55:50;11.02;;;7.93;;
61038;SDS011;46919;45.816;3.104;2023-01-29T10:17:51;10.40;;;6.82;;
61038;SDS011;46919;45.816;3.104;2023-01-29T10:20:47;13.48;;;7.22;;
61038;SDS011;46919;45.816;3.104;2023-01-29T10:25:50;9.32;;;6.40;;
61038;SDS011;46919;45.816;3.104;2023-01-29T10:28:17;10.60;;;6.45;;
61038;SDS011;46919;45.816;3.104;2023-01-29T10:30:48;9.27;;;6.40;;
61038;SDS011;46919;45.816;3.104;2023-01-29T10:33:22;15.48;;;9.45;;
61038;SDS011;46919;45.816;3.104;2023-01-29T10:36:03;16.77;;;9.80;;
61038;SDS011;46919;45.816;3.104;2023-01-29T10:41:10;15.48;;;8.95;;
61038;SDS011;46919;45.816;3.104;2023-01-29T10:57:51;14.48;;;7.68;;
61038;SDS011;46919;45.816;3.104;2023-01-29T11:00:39;11.07;;;6.80;;
61038;SDS011;46919;45.816;3.104;2023-01-29T11:03:13;8.77;;;5.40;;
61038;SDS011;46919;45.816;3.104;2023-01-29T11:05:57;8.15;;;5.53;;
61038;SDS011;46919;45.816;3.104;2023-01-29T11:08:27;9.73;;;5.68;;
61038;SDS011;46919;45.816;3.104;2023-01-29T11:11:14;7.82;;;5.45;;
61038;SDS011;46919;45.816;3.104;2023-01-29T11:13:54;8.52;;;5.43;;
61038;SDS011;46919;45.816;3.104;2023-01-29T11:16:24;12.30;;;5.63;;
61038;SDS011;46919;45.816;3.104;2023-01-29T11:18:57;9.10;;;5.50;;
61038;SDS011;46919;45.816;3.104;2023-01-29T11:21:25;6.55;;;4.72;;
61038;SDS011;46919;45.816;3.104;2023-01-29T11:24:11;7.65;;;5.57;;
61038;SDS011;46919;45.816;3.104;2023-01-29T11:26:41;9.30;;;5.90;;
61038;SDS011;46919;45.816;3.104;2023-01-29T11:34:59;6.45;;;4.57;;
61038;SDS011;46919;45.816;3.104;2023-01-29T11:37:37;7.25;;;5.18;;
61038;SDS011;46919;45.816;3.104;2023-01-29T11:42:42;6.65;;;4.75;;
61038;SDS011;46919;45.816;3.104;2023-01-29T11:45:26;6.13;;;4.82;;
61038;SDS011;46919;45.816;3.104;2023-01-29T11:47:59;6.43;;;4.25;;
61038;SDS011;46919;45.816;3.104;2023-01-29T11:50:25;6.40;;;4.93;;
61038;SDS011;46919;45.816;3.104;2023-01-29T11:52:53;6.25;;;4.45;;
61038;SDS011;46919;45.816;3.104;2023-01-29T11:55:20;5.75;;;4.78;;
61038;SDS011;46919;45.816;3.104;2023-01-29T11:57:49;5.65;;;4.03;;
61038;SDS011;46919;45.816;3.104;2023-01-29T12:00:39;7.32;;;4.13;;
61038;SDS011;46919;45.816;3.104;2023-01-29T12:03:51;4.70;;;3.45;;
61038;SDS011;46919;45.816;3.104;2023-01-29T12:08:34;7.15;;;4.90;;
61038;SDS011;46919;45.816;3.104;2023-01-29T12:13:38;7.15;;;4.82;;
61038;SDS011;46919;45.816;3.104;2023-01-29T12:21:49;5.20;;;4.20;;
61038;SDS011;46919;45.816;3.104;2023-01-29T12:28:14;5.65;;;4.22;;
61038;SDS011;46919;45.816;3.104;2023-01-29T12:33:04;5.85;;;4.32;;
61038;SDS011;46919;45.816;3.104;2023-01-29T12:35:46;6.35;;;4.38;;
61038;SDS011;46919;45.816;3.104;2023-01-29T12:38:18;5.85;;;4.30;;
61038;SDS011;46919;45.816;3.104;2023-01-29T12:40:52;6.20;;;4.40;;
61038;SDS011;46919;45.816;3.104;2023-01-29T12:46:00;5.45;;;4.05;;
61038;SDS011;46919;45.816;3.104;2023-01-29T12:48:29;5.25;;;4.10;;
61038;SDS011;46919;45.816;3.104;2023-01-29T12:51:00;6.10;;;4.50;;
61038;SDS011;46919;45.816;3.104;2023-01-29T12:53:38;6.25;;;4.65;;
61038;SDS011;46919;45.816;3.104;2023-01-29T12:56:15;5.10;;;3.95;;
61038;SDS011;46919;45.816;3.104;2023-01-29T12:58:59;6.18;;;4.28;;
61038;SDS011;46919;45.816;3.104;2023-01-29T13:06:29;6.57;;;5.32;;
61038;SDS011;46919;45.816;3.104;2023-01-29T13:09:03;6.93;;;5.03;;
61038;SDS011;46919;45.816;3.104;2023-01-29T13:11:37;10.75;;;8.00;;
61038;SDS011;46919;45.816;3.104;2023-01-29T13:14:13;8.70;;;5.22;;
61038;SDS011;46919;45.816;3.104;2023-01-29T13:16:44;5.97;;;4.57;;
61038;SDS011;46919;45.816;3.104;2023-01-29T13:19:48;9.10;;;6.53;;
61038;SDS011;46919;45.816;3.104;2023-01-29T13:22:22;10.10;;;7.70;;
61038;SDS011;46919;45.816;3.104;2023-01-29T13:24:50;7.68;;;5.72;;
61038;SDS011;46919;45.816;3.104;2023-01-29T13:27:26;9.23;;;7.00;;
61038;SDS011;46919;45.816;3.104;2023-01-29T13:29:53;6.05;;;4.20;;
61038;SDS011;46919;45.816;3.104;2023-01-29T13:32:22;5.05;;;4.30;;
61038;SDS011;46919;45.816;3.104;2023-01-29T13:34:50;6.72;;;4.55;;
61038;SDS011;46919;45.816;3.104;2023-01-29T13:37:35;5.57;;;4.40;;
61038;SDS011;46919;45.816;3.104;2023-01-29T13:40:06;13.90;;;7.47;;
61038;SDS011;46919;45.816;3.104;2023-01-29T13:45:04;10.65;;;6.70;;
61038;SDS011;46919;45.816;3.104;2023-01-29T13:47:32;6.05;;;4.88;;
61038;SDS011;46919;45.816;3.104;2023-01-29T13:50:06;8.55;;;6.65;;
61038;SDS011;46919;45.816;3.104;2023-01-29T13:52:59;7.72;;;5.95;;
61038;SDS011;46919;45.816;3.104;2023-01-29T13:58:07;8.25;;;5.93;;
61038;SDS011;46919;45.816;3.104;2023-01-29T14:00:57;6.30;;;5.43;;
61038;SDS011;46919;45.816;3.104;2023-01-29T14:13:46;9.25;;;6.35;;
61038;SDS011;46919;45.816;3.104;2023-01-29T14:21:21;9.73;;;7.07;;
61038;SDS011;46919;45.816;3.104;2023-01-29T14:23:52;6.20;;;4.53;;
61038;SDS011;46919;45.816;3.104;2023-01-29T14:34:48;6.93;;;4.55;;
61038;SDS011;46919;45.816;3.104;2023-01-29T14:37:34;6.75;;;4.88;;
61038;SDS011;46919;45.816;3.104;2023-01-29T14:42:35;7.18;;;4.90;;
61038;SDS011;46919;45.816;3.104;2023-01-29T14:45:19;6.43;;;5.07;;
61038;SDS011;46919;45.816;3.104;2023-01-29T14:48:37;6.50;;;4.65;;
61038;SDS011;46919;45.816;3.104;2023-01-29T14:51:04;8.60;;;4.70;;
61038;SDS011;46919;45.816;3.104;2023-01-29T14:53:57;6.32;;;4.95;;
61038;SDS011;46919;45.816;3.104;2023-01-29T14:56:28;5.40;;;4.45;;
61038;SDS011;46919;45.816;3.104;2023-01-29T15:01:25;7.38;;;5.68;;
61038;SDS011;46919;45.816;3.104;2023-01-29T15:09:18;9.32;;;5.28;;
61038;SDS011;46919;45.816;3.104;2023-01-29T15:14:40;5.93;;;4.60;;
61038;SDS011;46919;45.816;3.104;2023-01-29T15:17:24;6.93;;;4.88;;
61038;SDS011;46919;45.816;3.104;2023-01-29T15:19:53;7.97;;;5.82;;
61038;SDS011;46919;45.816;3.104;2023-01-29T15:22:20;12.80;;;9.68;;
61038;SDS011;46919;45.816;3.104;2023-01-29T15:25:03;12.23;;;9.18;;
61038;SDS011;46919;45.816;3.104;2023-01-29T15:27:40;7.32;;;5.15;;
61038;SDS011;46919;45.816;3.104;2023-01-29T15:30:07;6.45;;;4.78;;
61038;SDS011;46919;45.816;3.104;2023-01-29T15:32:40;7.78;;;4.97;;
61038;SDS011;46919;45.816;3.104;2023-01-29T15:35:10;6.70;;;4.53;;
61038;SDS011;46919;45.816;3.104;2023-01-29T15:40:29;5.57;;;4.47;;
61038;SDS011;46919;45.816;3.104;2023-01-29T15:42:54;6.43;;;4.70;;
61038;SDS011;46919;45.816;3.104;2023-01-29T15:45:29;6.45;;;4.90;;
61038;SDS011;46919;45.816;3.104;2023-01-29T15:48:12;7.07;;;5.40;;
61038;SDS011;46919;45.816;3.104;2023-01-29T15:50:41;9.23;;;6.20;;
61038;SDS011;46919;45.816;3.104;2023-01-29T15:53:15;9.88;;;6.70;;
61038;SDS011;46919;45.816;3.104;2023-01-29T15:55:48;8.30;;;6.35;;
61038;SDS011;46919;45.816;3.104;2023-01-29T15:58:19;7.47;;;5.43;;
61038;SDS011;46919;45.816;3.104;2023-01-29T16:00:52;7.40;;;5.15;;
61038;SDS011;46919;45.816;3.104;2023-01-29T16:03:21;7.07;;;4.93;;
61038;SDS011;46919;45.816;3.104;2023-01-29T16:05:47;7.32;;;5.30;;
61038;SDS011;46919;45.816;3.104;2023-01-29T16:08:14;7.05;;;4.97;;
61038;SDS011;46919;45.816;3.104;2023-01-29T16:10:40;7.38;;;5.32;;
61038;SDS011;46919;45.816;3.104;2023-01-29T16:13:25;9.43;;;5.80;;
61038;SDS011;46919;45.816;3.104;2023-01-29T16:16:03;15.15;;;8.13;;
61038;SDS011;46919;45.816;3.104;2023-01-29T16:18:43;8.38;;;5.72;;
61038;SDS011;46919;45.816;3.104;2023-01-29T16:21:15;6.78;;;4.82;;
61038;SDS011;46919;45.816;3.104;2023-01-29T16:23:51;6.60;;;4.70;;
61038;SDS011;46919;45.816;3.104;2023-01-29T16:26:23;7.03;;;4.45;;
61038;SDS011;46919;45.816;3.104;2023-01-29T16:28:50;9.02;;;5.75;;
61038;SDS011;46919;45.816;3.104;2023-01-29T16:31:22;9.32;;;5.95;;
61038;SDS011;46919;45.816;3.104;2023-01-29T16:33:51;10.88;;;6.18;;
61038;SDS011;46919;45.816;3.104;2023-01-29T16:36:21;11.45;;;7.18;;
61038;SDS011;46919;45.816;3.104;2023-01-29T16:39:23;10.75;;;7.22;;
61038;SDS011;46919;45.816;3.104;2023-01-29T16:42:01;11.23;;;7.03;;
61038;SDS011;46919;45.816;3.104;2023-01-29T16:49:50;13.40;;;7.47;;
61038;SDS011;46919;45.816;3.104;2023-01-29T16:52:25;11.80;;;6.85;;
61038;SDS011;46919;45.816;3.104;2023-01-29T16:54:57;10.55;;;6.40;;
61038;SDS011;46919;45.816;3.104;2023-01-29T16:57:39;18.55;;;9.98;;
61038;SDS011;46919;45.816;3.104;2023-01-29T17:00:06;17.83;;;10.10;;
61038;SDS011;46919;45.816;3.104;2023-01-29T17:02:42;14.60;;;8.32;;
61038;SDS011;46919;45.816;3.104;2023-01-29T17:05:09;13.68;;;8.13;;
61038;SDS011;46919;45.816;3.104;2023-01-29T17:07:44;21.85;;;10.82;;
61038;SDS011;46919;45.816;3.104;2023-01-29T17:10:14;12.27;;;8.15;;
61038;SDS011;46919;45.816;3.104;2023-01-29T17:12:43;10.82;;;7.18;;
61038;SDS011;46919;45.816;3.104;2023-01-29T17:18:28;10.68;;;7.32;;
61038;SDS011;46919;45.816;3.104;2023-01-29T17:20:52;22.25;;;13.52;;
61038;SDS011;46919;45.816;3.104;2023-01-29T17:23:18;27.95;;;14.75;;
61038;SDS011;46919;45.816;3.104;2023-01-29T17:25:44;25.45;;;13.93;;
61038;SDS011;46919;45.816;3.104;2023-01-29T17:28:14;22.65;;;13.10;;
61038;SDS011;46919;45.816;3.104;2023-01-29T17:30:42;28.63;;;13.70;;
61038;SDS011;46919;45.816;3.104;2023-01-29T17:33:12;26.30;;;13.20;;
61038;SDS011;46919;45.816;3.104;2023-01-29T17:35:39;25.13;;;11.73;;
61038;SDS011;46919;45.816;3.104;2023-01-29T17:38:08;18.00;;;10.25;;
61038;SDS011;46919;45.816;3.104;2023-01-29T17:40:45;22.33;;;13.60;;
61038;SDS011;46919;45.816;3.104;2023-01-29T17:43:15;21.08;;;12.90;;
61038;SDS011;46919;45.816;3.104;2023-01-29T17:45:40;18.45;;;12.45;;
61038;SDS011;46919;45.816;3.104;2023-01-29T17:48:20;18.38;;;11.90;;
61038;SDS011;46919;45.816;3.104;2023-01-29T17:50:48;16.00;;;10.88;;
61038;SDS011;46919;45.816;3.104;2023-01-29T17:53:17;12.95;;;9.52;;
61038;SDS011;46919;45.816;3.104;2023-01-29T17:55:44;22.13;;;15.52;;
61038;SDS011;46919;45.816;3.104;2023-01-29T17:58:16;19.27;;;13.13;;
61038;SDS011;46919;45.816;3.104;2023-01-29T18:00:44;24.80;;;14.00;;
61038;SDS011;46919;45.816;3.104;2023-01-29T18:03:09;24.02;;;14.50;;
61038;SDS011;46919;45.816;3.104;2023-01-29T18:05:35;27.73;;;15.93;;
61038;SDS011;46919;45.816;3.104;2023-01-29T18:08:00;22.30;;;12.55;;
61038;SDS011;46919;45.816;3.104;2023-01-29T18:10:26;16.88;;;9.98;;
61038;SDS011;46919;45.816;3.104;2023-01-29T18:12:52;19.55;;;10.32;;